sensor_id;sensor_type;location;lat;lon;timestamp;P1;durP1;ratioP1;P2;durP2;ratioP2
17618;SDS011;8928;51.678;6.074;2022-11-20T00:00:15;35.33;;;14.70;;
17618;SDS011;8928;51.678;6.074;2022-11-20T00:03:04;35.97;;;14.97;;
17618;SDS011;8928;51.678;6.074;2022-11-20T00:05:51;35.50;;;14.20;;
17618;SDS011;8928;51.678;6.074;2022-11-20T00:08:38;35.93;;;14.70;;
17618;SDS011;8928;51.678;6.074;2022-11-20T00:11:26;34.67;;;14.00;;
17618;SDS011;8928;51.678;6.074;2022-11-20T00:14:14;35.60;;;14.67;;
17618;SDS011;8928;51.678;6.074;2022-11-20T00:17:01;34.23;;;13.80;;
17618;SDS011;8928;51.678;6.074;2022-11-20T00:19:50;37.30;;;14.57;;
17618;SDS011;8928;51.678;6.074;2022-11-20T00:22:37;34.33;;;14.43;;
17618;SDS011;8928;51.678;6.074;2022-11-20T00:25:24;32.80;;;14.20;;
17618;SDS011;8928;51.678;6.074;2022-11-20T00:28:11;34.67;;;14.20;;
17618;SDS011;8928;51.678;6.074;2022-11-20T00:31:02;34.37;;;14.40;;
17618;SDS011;8928;51.678;6.074;2022-11-20T00:33:50;39.43;;;14.53;;
17618;SDS011;8928;51.678;6.074;2022-11-20T00:36:38;32.30;;;14.17;;
17618;SDS011;8928;51.678;6.074;2022-11-20T00:39:25;35.07;;;14.43;;
17618;SDS011;8928;51.678;6.074;2022-11-20T00:42:12;34.20;;;14.37;;
17618;SDS011;8928;51.678;6.074;2022-11-20T00:44:59;33.40;;;14.47;;
17618;SDS011;8928;51.678;6.074;2022-11-20T00:47:46;32.83;;;13.93;;
17618;SDS011;8928;51.678;6.074;2022-11-20T00:50:33;38.03;;;16.03;;
17618;SDS011;8928;51.678;6.074;2022-11-20T00:53:22;35.47;;;14.73;;
17618;SDS011;8928;51.678;6.074;2022-11-20T00:56:10;32.97;;;14.60;;
17618;SDS011;8928;51.678;6.074;2022-11-20T00:58:59;33.63;;;14.20;;
17618;SDS011;8928;51.678;6.074;2022-11-20T01:01:47;36.10;;;14.80;;
17618;SDS011;8928;51.678;6.074;2022-11-20T01:04:34;31.70;;;14.10;;
17618;SDS011;8928;51.678;6.074;2022-11-20T01:07:21;38.40;;;14.97;;
17618;SDS011;8928;51.678;6.074;2022-11-20T01:10:09;35.27;;;14.43;;
17618;SDS011;8928;51.678;6.074;2022-11-20T01:12:56;35.53;;;14.70;;
17618;SDS011;8928;51.678;6.074;2022-11-20T01:16:01;35.13;;;14.83;;
17618;SDS011;8928;51.678;6.074;2022-11-20T01:18:49;35.87;;;14.77;;
17618;SDS011;8928;51.678;6.074;2022-11-20T01:21:38;36.00;;;15.37;;
17618;SDS011;8928;51.678;6.074;2022-11-20T01:24:26;34.57;;;15.10;;
17618;SDS011;8928;51.678;6.074;2022-11-20T01:27:15;35.20;;;15.00;;
17618;SDS011;8928;51.678;6.074;2022-11-20T01:30:02;36.53;;;15.13;;
17618;SDS011;8928;51.678;6.074;2022-11-20T01:32:49;34.47;;;14.03;;
17618;SDS011;8928;51.678;6.074;2022-11-20T01:35:36;35.57;;;14.77;;
17618;SDS011;8928;51.678;6.074;2022-11-20T01:38:23;32.87;;;14.43;;
17618;SDS011;8928;51.678;6.074;2022-11-20T01:41:11;36.90;;;15.50;;
17618;SDS011;8928;51.678;6.074;2022-11-20T01:44:22;34.00;;;14.70;;
17618;SDS011;8928;51.678;6.074;2022-11-20T01:47:38;38.83;;;15.07;;
17618;SDS011;8928;51.678;6.074;2022-11-20T01:50:29;35.93;;;15.20;;
17618;SDS011;8928;51.678;6.074;2022-11-20T01:53:16;34.77;;;14.90;;
17618;SDS011;8928;51.678;6.074;2022-11-20T01:56:07;37.50;;;15.17;;
17618;SDS011;8928;51.678;6.074;2022-11-20T01:58:58;34.57;;;14.30;;
17618;SDS011;8928;51.678;6.074;2022-11-20T02:01:49;35.30;;;15.10;;
17618;SDS011;8928;51.678;6.074;2022-11-20T02:04:36;36.43;;;15.20;;
17618;SDS011;8928;51.678;6.074;2022-11-20T02:07:23;34.10;;;14.67;;
17618;SDS011;8928;51.678;6.074;2022-11-20T02:10:10;35.97;;;15.20;;
17618;SDS011;8928;51.678;6.074;2022-11-20T02:12:58;35.03;;;14.37;;
17618;SDS011;8928;51.678;6.074;2022-11-20T02:16:03;34.67;;;14.83;;
17618;SDS011;8928;51.678;6.074;2022-11-20T02:18:52;37.03;;;15.20;;
17618;SDS011;8928;51.678;6.074;2022-11-20T02:21:42;35.80;;;15.20;;
17618;SDS011;8928;51.678;6.074;2022-11-20T02:24:36;38.00;;;15.40;;
17618;SDS011;8928;51.678;6.074;2022-11-20T02:27:24;33.83;;;14.53;;
17618;SDS011;8928;51.678;6.074;2022-11-20T02:30:12;35.57;;;15.17;;
17618;SDS011;8928;51.678;6.074;2022-11-20T02:32:59;40.27;;;16.03;;
17618;SDS011;8928;51.678;6.074;2022-11-20T02:35:46;39.47;;;14.63;;
17618;SDS011;8928;51.678;6.074;2022-11-20T02:38:33;39.67;;;15.33;;
17618;SDS011;8928;51.678;6.074;2022-11-20T02:41:22;37.13;;;15.20;;
17618;SDS011;8928;51.678;6.074;2022-11-20T02:44:17;33.77;;;14.20;;
17618;SDS011;8928;51.678;6.074;2022-11-20T02:47:04;34.47;;;13.90;;
17618;SDS011;8928;51.678;6.074;2022-11-20T02:49:51;34.23;;;14.20;;
17618;SDS011;8928;51.678;6.074;2022-11-20T02:52:38;35.07;;;13.87;;
17618;SDS011;8928;51.678;6.074;2022-11-20T02:55:25;34.50;;;14.47;;
17618;SDS011;8928;51.678;6.074;2022-11-20T02:58:13;34.93;;;15.10;;
17618;SDS011;8928;51.678;6.074;2022-11-20T03:01:00;36.90;;;14.73;;
17618;SDS011;8928;51.678;6.074;2022-11-20T03:03:47;37.00;;;14.67;;
17618;SDS011;8928;51.678;6.074;2022-11-20T03:06:34;33.80;;;14.17;;
17618;SDS011;8928;51.678;6.074;2022-11-20T03:09:21;35.90;;;14.90;;
17618;SDS011;8928;51.678;6.074;2022-11-20T03:12:08;36.00;;;14.30;;
17618;SDS011;8928;51.678;6.074;2022-11-20T03:14:57;36.77;;;14.97;;
17618;SDS011;8928;51.678;6.074;2022-11-20T03:17:44;35.63;;;14.90;;
17618;SDS011;8928;51.678;6.074;2022-11-20T03:20:32;34.10;;;14.27;;
17618;SDS011;8928;51.678;6.074;2022-11-20T03:23:19;35.83;;;14.40;;
17618;SDS011;8928;51.678;6.074;2022-11-20T03:26:07;34.17;;;14.47;;
17618;SDS011;8928;51.678;6.074;2022-11-20T03:28:55;35.50;;;14.87;;
17618;SDS011;8928;51.678;6.074;2022-11-20T03:31:45;42.87;;;15.13;;
17618;SDS011;8928;51.678;6.074;2022-11-20T03:34:32;40.57;;;14.57;;
17618;SDS011;8928;51.678;6.074;2022-11-20T03:37:19;36.13;;;15.07;;
17618;SDS011;8928;51.678;6.074;2022-11-20T03:40:06;30.77;;;14.03;;
17618;SDS011;8928;51.678;6.074;2022-11-20T03:42:54;35.00;;;14.07;;
17618;SDS011;8928;51.678;6.074;2022-11-20T03:45:41;33.53;;;14.07;;
17618;SDS011;8928;51.678;6.074;2022-11-20T03:48:29;37.00;;;13.77;;
17618;SDS011;8928;51.678;6.074;2022-11-20T03:51:17;37.10;;;14.37;;
17618;SDS011;8928;51.678;6.074;2022-11-20T03:54:06;36.37;;;14.70;;
17618;SDS011;8928;51.678;6.074;2022-11-20T03:56:54;36.03;;;14.53;;
17618;SDS011;8928;51.678;6.074;2022-11-20T03:59:41;34.10;;;14.43;;
17618;SDS011;8928;51.678;6.074;2022-11-20T04:02:28;33.63;;;14.67;;
17618;SDS011;8928;51.678;6.074;2022-11-20T04:05:16;33.80;;;14.53;;
17618;SDS011;8928;51.678;6.074;2022-11-20T04:08:04;37.80;;;15.13;;
17618;SDS011;8928;51.678;6.074;2022-11-20T04:10:51;36.87;;;15.47;;
17618;SDS011;8928;51.678;6.074;2022-11-20T04:13:38;36.40;;;14.40;;
17618;SDS011;8928;51.678;6.074;2022-11-20T04:16:26;38.37;;;14.60;;
17618;SDS011;8928;51.678;6.074;2022-11-20T04:19:16;36.03;;;14.60;;
17618;SDS011;8928;51.678;6.074;2022-11-20T04:22:04;37.93;;;14.57;;
17618;SDS011;8928;51.678;6.074;2022-11-20T04:24:51;35.27;;;14.13;;
17618;SDS011;8928;51.678;6.074;2022-11-20T04:27:38;36.87;;;14.23;;
17618;SDS011;8928;51.678;6.074;2022-11-20T04:30:25;34.10;;;13.83;;
17618;SDS011;8928;51.678;6.074;2022-11-20T04:33:12;34.30;;;14.03;;
17618;SDS011;8928;51.678;6.074;2022-11-20T04:36:00;36.30;;;14.50;;
17618;SDS011;8928;51.678;6.074;2022-11-20T04:38:51;35.13;;;15.17;;
17618;SDS011;8928;51.678;6.074;2022-11-20T04:41:39;33.63;;;14.50;;
17618;SDS011;8928;51.678;6.074;2022-11-20T04:44:26;35.03;;;14.70;;
17618;SDS011;8928;51.678;6.074;2022-11-20T04:47:13;36.27;;;15.00;;
17618;SDS011;8928;51.678;6.074;2022-11-20T04:50:00;37.83;;;15.23;;
17618;SDS011;8928;51.678;6.074;2022-11-20T04:52:47;38.23;;;15.90;;
17618;SDS011;8928;51.678;6.074;2022-11-20T04:55:35;36.47;;;14.93;;
17618;SDS011;8928;51.678;6.074;2022-11-20T04:58:22;39.60;;;14.67;;
17618;SDS011;8928;51.678;6.074;2022-11-20T05:01:10;36.40;;;14.80;;
17618;SDS011;8928;51.678;6.074;2022-11-20T05:03:58;41.23;;;16.50;;
17618;SDS011;8928;51.678;6.074;2022-11-20T05:06:45;38.13;;;15.87;;
17618;SDS011;8928;51.678;6.074;2022-11-20T05:09:32;40.67;;;15.47;;
17618;SDS011;8928;51.678;6.074;2022-11-20T05:12:20;41.37;;;15.83;;
17618;SDS011;8928;51.678;6.074;2022-11-20T05:15:08;37.63;;;15.47;;
17618;SDS011;8928;51.678;6.074;2022-11-20T05:17:55;39.23;;;15.30;;
17618;SDS011;8928;51.678;6.074;2022-11-20T05:20:42;39.03;;;15.50;;
17618;SDS011;8928;51.678;6.074;2022-11-20T05:23:30;36.07;;;14.53;;
17618;SDS011;8928;51.678;6.074;2022-11-20T05:26:18;36.30;;;15.27;;
17618;SDS011;8928;51.678;6.074;2022-11-20T05:29:09;37.93;;;15.00;;
17618;SDS011;8928;51.678;6.074;2022-11-20T05:31:56;38.80;;;15.33;;
17618;SDS011;8928;51.678;6.074;2022-11-20T05:34:43;36.70;;;14.70;;
17618;SDS011;8928;51.678;6.074;2022-11-20T05:37:30;37.50;;;14.80;;
17618;SDS011;8928;51.678;6.074;2022-11-20T05:40:17;36.00;;;14.33;;
17618;SDS011;8928;51.678;6.074;2022-11-20T05:43:04;41.37;;;14.77;;
17618;SDS011;8928;51.678;6.074;2022-11-20T05:45:53;37.23;;;14.93;;
17618;SDS011;8928;51.678;6.074;2022-11-20T05:48:41;40.43;;;14.70;;
17618;SDS011;8928;51.678;6.074;2022-11-20T05:51:29;35.53;;;14.13;;
17618;SDS011;8928;51.678;6.074;2022-11-20T05:54:16;34.80;;;14.70;;
17618;SDS011;8928;51.678;6.074;2022-11-20T05:57:03;37.83;;;14.93;;
17618;SDS011;8928;51.678;6.074;2022-11-20T05:59:50;38.40;;;14.57;;
17618;SDS011;8928;51.678;6.074;2022-11-20T06:02:38;33.33;;;14.33;;
17618;SDS011;8928;51.678;6.074;2022-11-20T06:05:25;37.50;;;14.77;;
17618;SDS011;8928;51.678;6.074;2022-11-20T06:08:12;37.13;;;15.53;;
17618;SDS011;8928;51.678;6.074;2022-11-20T06:11:02;36.60;;;14.17;;
17618;SDS011;8928;51.678;6.074;2022-11-20T06:13:50;35.77;;;14.80;;
17618;SDS011;8928;51.678;6.074;2022-11-20T06:16:38;38.23;;;14.77;;
17618;SDS011;8928;51.678;6.074;2022-11-20T06:19:26;38.23;;;15.00;;
17618;SDS011;8928;51.678;6.074;2022-11-20T06:22:13;38.10;;;15.47;;
17618;SDS011;8928;51.678;6.074;2022-11-20T06:25:00;37.57;;;14.97;;
17618;SDS011;8928;51.678;6.074;2022-11-20T06:27:47;37.00;;;15.03;;
17618;SDS011;8928;51.678;6.074;2022-11-20T06:30:34;38.53;;;15.60;;
17618;SDS011;8928;51.678;6.074;2022-11-20T06:33:21;40.00;;;14.83;;
17618;SDS011;8928;51.678;6.074;2022-11-20T06:36:10;35.03;;;14.93;;
17618;SDS011;8928;51.678;6.074;2022-11-20T06:38:57;41.77;;;16.13;;
17618;SDS011;8928;51.678;6.074;2022-11-20T06:41:45;40.60;;;15.43;;
17618;SDS011;8928;51.678;6.074;2022-11-20T06:44:32;39.37;;;14.73;;
17618;SDS011;8928;51.678;6.074;2022-11-20T06:47:19;36.13;;;14.73;;
17618;SDS011;8928;51.678;6.074;2022-11-20T06:50:06;39.70;;;15.80;;
17618;SDS011;8928;51.678;6.074;2022-11-20T06:52:55;44.87;;;16.80;;
17618;SDS011;8928;51.678;6.074;2022-11-20T06:55:42;37.23;;;15.47;;
17618;SDS011;8928;51.678;6.074;2022-11-20T06:58:30;41.00;;;16.23;;
17618;SDS011;8928;51.678;6.074;2022-11-20T07:01:18;38.50;;;15.90;;
17618;SDS011;8928;51.678;6.074;2022-11-20T07:04:05;38.00;;;15.57;;
17618;SDS011;8928;51.678;6.074;2022-11-20T07:06:52;39.53;;;16.40;;
17618;SDS011;8928;51.678;6.074;2022-11-20T07:09:41;44.10;;;16.13;;
17618;SDS011;8928;51.678;6.074;2022-11-20T07:12:28;37.80;;;15.40;;
17618;SDS011;8928;51.678;6.074;2022-11-20T07:15:15;40.73;;;15.73;;
17618;SDS011;8928;51.678;6.074;2022-11-20T07:18:02;39.33;;;15.87;;
17618;SDS011;8928;51.678;6.074;2022-11-20T07:20:49;43.90;;;15.63;;
17618;SDS011;8928;51.678;6.074;2022-11-20T07:23:36;41.53;;;15.27;;
17618;SDS011;8928;51.678;6.074;2022-11-20T07:26:25;40.83;;;15.97;;
17618;SDS011;8928;51.678;6.074;2022-11-20T07:29:12;42.67;;;16.57;;
17618;SDS011;8928;51.678;6.074;2022-11-20T07:31:59;52.63;;;18.93;;
17618;SDS011;8928;51.678;6.074;2022-11-20T07:34:46;71.30;;;25.37;;
17618;SDS011;8928;51.678;6.074;2022-11-20T07:37:33;66.90;;;23.57;;
17618;SDS011;8928;51.678;6.074;2022-11-20T07:40:20;60.67;;;21.77;;
17618;SDS011;8928;51.678;6.074;2022-11-20T07:43:09;54.37;;;20.57;;
17618;SDS011;8928;51.678;6.074;2022-11-20T07:45:56;48.67;;;18.97;;
17618;SDS011;8928;51.678;6.074;2022-11-20T07:48:43;47.00;;;18.47;;
17618;SDS011;8928;51.678;6.074;2022-11-20T07:51:30;45.13;;;17.60;;
17618;SDS011;8928;51.678;6.074;2022-11-20T07:54:17;43.53;;;17.17;;
17618;SDS011;8928;51.678;6.074;2022-11-20T07:57:04;45.37;;;17.70;;
17618;SDS011;8928;51.678;6.074;2022-11-20T07:59:53;42.57;;;17.10;;
17618;SDS011;8928;51.678;6.074;2022-11-20T08:02:40;49.17;;;17.97;;
17618;SDS011;8928;51.678;6.074;2022-11-20T08:05:27;46.53;;;18.53;;
17618;SDS011;8928;51.678;6.074;2022-11-20T08:08:14;44.77;;;18.57;;
17618;SDS011;8928;51.678;6.074;2022-11-20T08:11:01;55.40;;;21.13;;
17618;SDS011;8928;51.678;6.074;2022-11-20T08:14:06;51.13;;;20.67;;
17618;SDS011;8928;51.678;6.074;2022-11-20T08:17:00;46.77;;;19.90;;
17618;SDS011;8928;51.678;6.074;2022-11-20T08:19:47;48.93;;;20.10;;
17618;SDS011;8928;51.678;6.074;2022-11-20T08:22:34;51.13;;;19.87;;
17618;SDS011;8928;51.678;6.074;2022-11-20T08:25:21;49.37;;;19.97;;
17618;SDS011;8928;51.678;6.074;2022-11-20T08:28:08;47.87;;;19.70;;
17618;SDS011;8928;51.678;6.074;2022-11-20T08:30:57;44.60;;;19.13;;
17618;SDS011;8928;51.678;6.074;2022-11-20T08:33:46;44.43;;;19.43;;
17618;SDS011;8928;51.678;6.074;2022-11-20T08:36:33;49.90;;;20.37;;
17618;SDS011;8928;51.678;6.074;2022-11-20T08:39:20;47.77;;;20.77;;
17618;SDS011;8928;51.678;6.074;2022-11-20T08:42:08;47.50;;;20.67;;
17618;SDS011;8928;51.678;6.074;2022-11-20T08:44:55;50.47;;;19.87;;
17618;SDS011;8928;51.678;6.074;2022-11-20T08:47:42;47.03;;;21.17;;
17618;SDS011;8928;51.678;6.074;2022-11-20T08:50:30;46.40;;;20.50;;
17618;SDS011;8928;51.678;6.074;2022-11-20T08:53:18;46.97;;;20.13;;
17618;SDS011;8928;51.678;6.074;2022-11-20T08:56:05;48.57;;;21.67;;
17618;SDS011;8928;51.678;6.074;2022-11-20T08:58:54;43.10;;;19.57;;
17618;SDS011;8928;51.678;6.074;2022-11-20T09:01:42;39.63;;;19.43;;
17618;SDS011;8928;51.678;6.074;2022-11-20T09:04:29;46.27;;;20.40;;
17618;SDS011;8928;51.678;6.074;2022-11-20T09:07:17;41.57;;;19.60;;
17618;SDS011;8928;51.678;6.074;2022-11-20T09:10:04;42.10;;;19.83;;
17618;SDS011;8928;51.678;6.074;2022-11-20T09:12:53;40.20;;;19.10;;
17618;SDS011;8928;51.678;6.074;2022-11-20T09:15:41;39.50;;;18.57;;
17618;SDS011;8928;51.678;6.074;2022-11-20T09:18:28;42.40;;;18.37;;
17618;SDS011;8928;51.678;6.074;2022-11-20T09:21:16;36.47;;;18.73;;
17618;SDS011;8928;51.678;6.074;2022-11-20T09:24:05;38.23;;;18.77;;
17618;SDS011;8928;51.678;6.074;2022-11-20T09:26:53;40.07;;;18.50;;
17618;SDS011;8928;51.678;6.074;2022-11-20T09:29:40;36.43;;;18.03;;
17618;SDS011;8928;51.678;6.074;2022-11-20T09:32:27;38.90;;;18.43;;
17618;SDS011;8928;51.678;6.074;2022-11-20T09:35:14;36.03;;;16.97;;
17618;SDS011;8928;51.678;6.074;2022-11-20T09:38:04;38.30;;;18.13;;
17618;SDS011;8928;51.678;6.074;2022-11-20T09:40:55;37.63;;;17.93;;
17618;SDS011;8928;51.678;6.074;2022-11-20T09:43:46;37.97;;;18.03;;
17618;SDS011;8928;51.678;6.074;2022-11-20T09:46:43;42.00;;;18.57;;
17618;SDS011;8928;51.678;6.074;2022-11-20T09:49:40;36.73;;;18.67;;
17618;SDS011;8928;51.678;6.074;2022-11-20T09:52:45;37.37;;;18.40;;
17618;SDS011;8928;51.678;6.074;2022-11-20T09:55:41;41.00;;;19.57;;
17618;SDS011;8928;51.678;6.074;2022-11-20T09:58:31;39.93;;;18.93;;
17618;SDS011;8928;51.678;6.074;2022-11-20T10:01:23;39.53;;;19.27;;
17618;SDS011;8928;51.678;6.074;2022-11-20T10:04:15;46.03;;;19.90;;
17618;SDS011;8928;51.678;6.074;2022-11-20T10:07:06;42.23;;;21.07;;
17618;SDS011;8928;51.678;6.074;2022-11-20T10:09:59;51.53;;;24.97;;
17618;SDS011;8928;51.678;6.074;2022-11-20T10:12:51;46.87;;;20.77;;
17618;SDS011;8928;51.678;6.074;2022-11-20T10:15:52;38.67;;;18.90;;
17618;SDS011;8928;51.678;6.074;2022-11-20T10:18:50;38.07;;;18.10;;
17618;SDS011;8928;51.678;6.074;2022-11-20T10:21:47;33.30;;;17.53;;
17618;SDS011;8928;51.678;6.074;2022-11-20T10:24:47;35.80;;;17.20;;
17618;SDS011;8928;51.678;6.074;2022-11-20T10:27:42;31.33;;;16.37;;
17618;SDS011;8928;51.678;6.074;2022-11-20T10:30:39;33.17;;;17.00;;
17618;SDS011;8928;51.678;6.074;2022-11-20T10:33:31;33.93;;;16.53;;
17618;SDS011;8928;51.678;6.074;2022-11-20T10:36:23;32.37;;;16.60;;
17618;SDS011;8928;51.678;6.074;2022-11-20T10:39:14;30.23;;;16.33;;
17618;SDS011;8928;51.678;6.074;2022-11-20T10:42:08;33.37;;;17.00;;
17618;SDS011;8928;51.678;6.074;2022-11-20T10:45:02;33.03;;;17.03;;
17618;SDS011;8928;51.678;6.074;2022-11-20T10:48:07;36.60;;;18.27;;
17618;SDS011;8928;51.678;6.074;2022-11-20T10:51:07;37.40;;;19.70;;
17618;SDS011;8928;51.678;6.074;2022-11-20T10:54:09;34.73;;;16.97;;
17618;SDS011;8928;51.678;6.074;2022-11-20T10:57:05;31.07;;;16.87;;
17618;SDS011;8928;51.678;6.074;2022-11-20T11:00:03;33.17;;;18.07;;
17618;SDS011;8928;51.678;6.074;2022-11-20T11:02:52;36.87;;;20.17;;
17618;SDS011;8928;51.678;6.074;2022-11-20T11:05:43;38.27;;;20.37;;
17618;SDS011;8928;51.678;6.074;2022-11-20T11:08:38;37.57;;;19.57;;
17618;SDS011;8928;51.678;6.074;2022-11-20T11:11:26;36.50;;;19.43;;
17618;SDS011;8928;51.678;6.074;2022-11-20T11:14:16;36.47;;;18.57;;
17618;SDS011;8928;51.678;6.074;2022-11-20T11:17:04;36.50;;;18.83;;
17618;SDS011;8928;51.678;6.074;2022-11-20T11:19:58;36.70;;;19.10;;
17618;SDS011;8928;51.678;6.074;2022-11-20T11:22:46;37.80;;;19.03;;
17618;SDS011;8928;51.678;6.074;2022-11-20T11:25:36;37.00;;;19.13;;
17618;SDS011;8928;51.678;6.074;2022-11-20T11:28:24;35.27;;;18.50;;
17618;SDS011;8928;51.678;6.074;2022-11-20T11:31:21;34.17;;;18.03;;
17618;SDS011;8928;51.678;6.074;2022-11-20T11:34:11;37.17;;;17.53;;
17618;SDS011;8928;51.678;6.074;2022-11-20T11:37:00;34.90;;;16.93;;
17618;SDS011;8928;51.678;6.074;2022-11-20T11:39:49;34.00;;;17.47;;
17618;SDS011;8928;51.678;6.074;2022-11-20T11:42:41;34.60;;;17.70;;
17618;SDS011;8928;51.678;6.074;2022-11-20T11:45:29;34.47;;;18.30;;
17618;SDS011;8928;51.678;6.074;2022-11-20T11:48:15;34.43;;;17.63;;
17618;SDS011;8928;51.678;6.074;2022-11-20T11:51:02;35.30;;;18.53;;
17618;SDS011;8928;51.678;6.074;2022-11-20T11:53:56;34.30;;;17.43;;
17618;SDS011;8928;51.678;6.074;2022-11-20T11:56:45;34.67;;;18.50;;
17618;SDS011;8928;51.678;6.074;2022-11-20T11:59:41;35.07;;;17.83;;
17618;SDS011;8928;51.678;6.074;2022-11-20T12:02:36;35.47;;;18.10;;
17618;SDS011;8928;51.678;6.074;2022-11-20T12:05:35;34.73;;;17.90;;
17618;SDS011;8928;51.678;6.074;2022-11-20T12:08:30;34.20;;;17.43;;
17618;SDS011;8928;51.678;6.074;2022-11-20T12:11:24;37.27;;;18.20;;
17618;SDS011;8928;51.678;6.074;2022-11-20T12:14:20;34.63;;;18.30;;
17618;SDS011;8928;51.678;6.074;2022-11-20T12:17:13;31.00;;;17.13;;
17618;SDS011;8928;51.678;6.074;2022-11-20T12:20:01;44.33;;;17.87;;
17618;SDS011;8928;51.678;6.074;2022-11-20T12:22:48;35.07;;;18.47;;
17618;SDS011;8928;51.678;6.074;2022-11-20T12:25:42;35.67;;;17.77;;
17618;SDS011;8928;51.678;6.074;2022-11-20T12:28:36;37.67;;;18.47;;
17618;SDS011;8928;51.678;6.074;2022-11-20T12:31:51;37.10;;;19.73;;
17618;SDS011;8928;51.678;6.074;2022-11-20T12:34:50;40.13;;;20.07;;
17618;SDS011;8928;51.678;6.074;2022-11-20T12:37:45;40.53;;;19.90;;
17618;SDS011;8928;51.678;6.074;2022-11-20T12:40:40;42.03;;;20.43;;
17618;SDS011;8928;51.678;6.074;2022-11-20T12:43:36;40.70;;;20.27;;
17618;SDS011;8928;51.678;6.074;2022-11-20T12:46:47;39.40;;;20.70;;
17618;SDS011;8928;51.678;6.074;2022-11-20T12:49:44;42.23;;;20.17;;
17618;SDS011;8928;51.678;6.074;2022-11-20T12:52:41;41.37;;;20.50;;
17618;SDS011;8928;51.678;6.074;2022-11-20T12:55:36;44.13;;;21.13;;
17618;SDS011;8928;51.678;6.074;2022-11-20T12:58:33;44.67;;;21.13;;
17618;SDS011;8928;51.678;6.074;2022-11-20T13:01:28;42.93;;;20.43;;
17618;SDS011;8928;51.678;6.074;2022-11-20T13:04:34;42.20;;;21.00;;
17618;SDS011;8928;51.678;6.074;2022-11-20T13:07:37;48.17;;;22.40;;
17618;SDS011;8928;51.678;6.074;2022-11-20T13:10:26;53.63;;;24.97;;
17618;SDS011;8928;51.678;6.074;2022-11-20T13:13:22;49.53;;;23.30;;
17618;SDS011;8928;51.678;6.074;2022-11-20T13:16:16;59.93;;;25.77;;
17618;SDS011;8928;51.678;6.074;2022-11-20T13:19:10;55.17;;;23.97;;
17618;SDS011;8928;51.678;6.074;2022-11-20T13:21:59;52.03;;;23.27;;
17618;SDS011;8928;51.678;6.074;2022-11-20T13:24:51;52.73;;;23.13;;
17618;SDS011;8928;51.678;6.074;2022-11-20T13:27:46;55.47;;;24.13;;
17618;SDS011;8928;51.678;6.074;2022-11-20T13:30:33;54.40;;;23.87;;
17618;SDS011;8928;51.678;6.074;2022-11-20T13:33:22;65.70;;;25.63;;
17618;SDS011;8928;51.678;6.074;2022-11-20T13:36:20;57.40;;;24.67;;
17618;SDS011;8928;51.678;6.074;2022-11-20T13:39:09;60.13;;;24.50;;
17618;SDS011;8928;51.678;6.074;2022-11-20T13:41:58;67.90;;;25.40;;
17618;SDS011;8928;51.678;6.074;2022-11-20T13:44:47;67.80;;;25.30;;
17618;SDS011;8928;51.678;6.074;2022-11-20T13:47:37;65.33;;;25.70;;
17618;SDS011;8928;51.678;6.074;2022-11-20T13:50:40;68.87;;;25.33;;
17618;SDS011;8928;51.678;6.074;2022-11-20T13:53:56;64.17;;;25.23;;
17618;SDS011;8928;51.678;6.074;2022-11-20T13:57:14;66.70;;;25.67;;
17618;SDS011;8928;51.678;6.074;2022-11-20T14:00:17;63.00;;;24.87;;
17618;SDS011;8928;51.678;6.074;2022-11-20T14:03:08;69.93;;;25.00;;
17618;SDS011;8928;51.678;6.074;2022-11-20T14:06:05;70.73;;;25.57;;
17618;SDS011;8928;51.678;6.074;2022-11-20T14:08:59;65.37;;;24.50;;
17618;SDS011;8928;51.678;6.074;2022-11-20T14:11:46;67.33;;;24.70;;
17618;SDS011;8928;51.678;6.074;2022-11-20T14:14:35;75.63;;;27.50;;
17618;SDS011;8928;51.678;6.074;2022-11-20T14:17:23;72.83;;;25.90;;
17618;SDS011;8928;51.678;6.074;2022-11-20T14:20:15;72.97;;;25.77;;
17618;SDS011;8928;51.678;6.074;2022-11-20T14:23:09;76.43;;;26.23;;
17618;SDS011;8928;51.678;6.074;2022-11-20T14:25:57;69.57;;;25.50;;
17618;SDS011;8928;51.678;6.074;2022-11-20T14:28:47;73.27;;;25.23;;
17618;SDS011;8928;51.678;6.074;2022-11-20T14:31:36;70.70;;;24.77;;
17618;SDS011;8928;51.678;6.074;2022-11-20T14:34:25;69.30;;;24.27;;
17618;SDS011;8928;51.678;6.074;2022-11-20T14:37:17;72.27;;;25.03;;
17618;SDS011;8928;51.678;6.074;2022-11-20T14:40:21;68.37;;;25.37;;
17618;SDS011;8928;51.678;6.074;2022-11-20T14:43:20;67.33;;;24.47;;
17618;SDS011;8928;51.678;6.074;2022-11-20T14:46:09;69.87;;;24.70;;
17618;SDS011;8928;51.678;6.074;2022-11-20T14:49:00;75.40;;;25.93;;
17618;SDS011;8928;51.678;6.074;2022-11-20T14:51:57;71.93;;;25.03;;
17618;SDS011;8928;51.678;6.074;2022-11-20T14:54:46;65.60;;;24.03;;
17618;SDS011;8928;51.678;6.074;2022-11-20T14:57:35;67.83;;;24.50;;
17618;SDS011;8928;51.678;6.074;2022-11-20T15:00:23;63.53;;;24.37;;
17618;SDS011;8928;51.678;6.074;2022-11-20T15:03:14;65.77;;;23.93;;
17618;SDS011;8928;51.678;6.074;2022-11-20T15:06:03;68.10;;;25.20;;
17618;SDS011;8928;51.678;6.074;2022-11-20T15:08:51;71.60;;;25.07;;
17618;SDS011;8928;51.678;6.074;2022-11-20T15:11:39;65.40;;;24.00;;
17618;SDS011;8928;51.678;6.074;2022-11-20T15:14:39;70.70;;;25.73;;
17618;SDS011;8928;51.678;6.074;2022-11-20T15:17:26;63.53;;;23.77;;
17618;SDS011;8928;51.678;6.074;2022-11-20T15:20:14;72.47;;;24.33;;
17618;SDS011;8928;51.678;6.074;2022-11-20T15:23:08;62.63;;;23.87;;
17618;SDS011;8928;51.678;6.074;2022-11-20T15:25:57;66.70;;;23.30;;
17618;SDS011;8928;51.678;6.074;2022-11-20T15:28:44;68.87;;;24.77;;
17618;SDS011;8928;51.678;6.074;2022-11-20T15:31:32;62.67;;;23.20;;
17618;SDS011;8928;51.678;6.074;2022-11-20T15:34:20;66.43;;;23.70;;
17618;SDS011;8928;51.678;6.074;2022-11-20T15:37:07;64.50;;;23.63;;
17618;SDS011;8928;51.678;6.074;2022-11-20T15:39:55;63.80;;;23.80;;
17618;SDS011;8928;51.678;6.074;2022-11-20T15:42:42;65.67;;;24.43;;
17618;SDS011;8928;51.678;6.074;2022-11-20T15:45:48;65.23;;;25.03;;
17618;SDS011;8928;51.678;6.074;2022-11-20T15:48:38;67.23;;;24.17;;
17618;SDS011;8928;51.678;6.074;2022-11-20T15:51:27;65.67;;;24.47;;
17618;SDS011;8928;51.678;6.074;2022-11-20T15:54:16;65.30;;;24.80;;
17618;SDS011;8928;51.678;6.074;2022-11-20T15:57:07;68.67;;;24.37;;
17618;SDS011;8928;51.678;6.074;2022-11-20T15:59:54;65.17;;;24.10;;
17618;SDS011;8928;51.678;6.074;2022-11-20T16:02:41;76.03;;;24.30;;
17618;SDS011;8928;51.678;6.074;2022-11-20T16:05:28;70.10;;;24.03;;
17618;SDS011;8928;51.678;6.074;2022-11-20T16:08:16;72.57;;;25.03;;
17618;SDS011;8928;51.678;6.074;2022-11-20T16:11:03;66.63;;;25.00;;
17618;SDS011;8928;51.678;6.074;2022-11-20T16:13:51;64.80;;;25.27;;
17618;SDS011;8928;51.678;6.074;2022-11-20T16:16:56;67.70;;;25.50;;
17618;SDS011;8928;51.678;6.074;2022-11-20T16:19:43;68.63;;;26.03;;
17618;SDS011;8928;51.678;6.074;2022-11-20T16:22:30;76.17;;;25.93;;
17618;SDS011;8928;51.678;6.074;2022-11-20T16:25:17;71.80;;;25.40;;
17618;SDS011;8928;51.678;6.074;2022-11-20T16:28:04;72.87;;;24.83;;
17618;SDS011;8928;51.678;6.074;2022-11-20T16:30:53;72.93;;;26.40;;
17618;SDS011;8928;51.678;6.074;2022-11-20T16:33:40;73.17;;;26.60;;
17618;SDS011;8928;51.678;6.074;2022-11-20T16:36:28;70.40;;;25.70;;
17618;SDS011;8928;51.678;6.074;2022-11-20T16:39:16;71.33;;;26.97;;
17618;SDS011;8928;51.678;6.074;2022-11-20T16:42:03;73.33;;;27.03;;
17618;SDS011;8928;51.678;6.074;2022-11-20T16:44:51;80.10;;;26.80;;
17618;SDS011;8928;51.678;6.074;2022-11-20T16:47:39;72.03;;;26.83;;